Terminal Aerodrome Forecast
Issued by NWS Wilmington, OH

Current Version | Previous Version | Text Only | Print | Product List | Glossary Off
Versions: 1 2 3 4 5 6 7 8 9 10 11 12 13 14 15 16 17 18 19 20

000
FTUS41 KILN 280300 AAA
TAFDAY
TAF AMD
KDAY 280302Z 2803/2824 29011KT P6SM FEW040
     FM280900 30011KT P6SM VCSH OVC015
     FM281500 31012KT P6SM -SHRA OVC018
     FM281800 32012G20KT P6SM -SHRA BKN035
     FM282300 32010KT P6SM BKN035=

USA.gov is the U.S. government's official web portal to all federal, state and local government web resources and services.